Aviation Digital Data Service (ADDS)

Output produced by TAFs form (0404 UTC 21 September 2014)
found at http://aviationweather.gov/adds/tafs/
 
KTEX 202325Z 2100/2124 24009G15KT P6SM VCSH SCT090 BKN150 
     FM210200 14005KT P6SM VCSH SCT090 BKN150 
     FM210600 13008KT P6SM VCSH BKN080 
     FM211400 14008KT P6SM VCSH SCT050 BKN070 
     FM211800 20007KT P6SM VCSH SCT080 BKN120 AMD NOT SKED